CET,Max TemperatureF,Mean TemperatureF,Min TemperatureF,Max Dew PointF,MeanDew PointF,Min DewpointF,Max Humidity, Mean Humidity, Min Humidity, Max Sea Level PressureIn, Mean Sea Level PressureIn, Min Sea Level PressureIn, Max VisibilityMiles, Mean VisibilityMiles, Min VisibilityMiles, Max Wind SpeedMPH, Mean Wind SpeedMPH, Max Gust SpeedMPH,PrecipitationIn, CloudCover, Events, WindDirDegrees
2012-10-1,47,44,40,45,42,41,100,95,79,30.18,30.13,30.09,6,2,0,14,9,,0.03,5,Fog-Rain,257
2012-10-2,50,46,42,45,42,39,100,90,72,30.18,30.15,30.12,19,4,0,13,6,,0.00,4,Fog-Rain,296
2012-10-3,47,44,41,45,41,38,100,90,74,30.18,30.17,30.15,12,4,0,16,5,,0.00,4,Fog,213
2012-10-4,42,40,39,43,40,37,100,97,87,30.18,30.12,30.09,6,0,0,20,8,31,0.00,1,Fog,217
2012-10-5,46,43,40,45,40,30,100,88,52,30.27,30.22,30.18,19,2,0,12,6,,0.00,1,Fog,203
2012-10-6,46,44,41,45,41,37,100,90,79,30.27,30.23,30.21,12,2,0,8,4,,0.00,3,Fog,307
2012-10-7,48,44,41,48,43,36,100,95,76,30.18,30.09,30.04,6,0,0,16,8,,0.00,3,Fog,252
2012-10-8,45,42,38,42,32,19,100,70,37,30.15,30.11,30.06,1,0,0,13,8,,0.00,,Fog,228
2012-10-9,45,42,38,41,38,35,100,87,58,30.06,29.98,29.92,16,3,0,13,6,,0.12,1,Fog-Rain,328
2012-10-10,47,43,39,43,39,35,100,84,67,30.01,29.96,29.92,6,2,0,10,7,,0.31,1,Fog-Rain,22
2012-10-11,43,40,37,41,37,32,100,88,69,29.95,29.94,29.92,1,0,0,15,7,,0.00,,Fog,201
2012-10-12,44,40,35,41,37,34,100,88,74,29.98,29.92,29.89,12,3,0,20,6,,0.20,1,Fog-Rain,2
2012-10-13,38,36,35,37,35,30,100,93,73,30.01,29.96,29.86,9,2,0,17,10,,0.12,3,Fog-Rain,160
2012-10-14,36,34,32,36,35,32,100,99,93,29.86,29.76,29.68,0,0,0,32,12,52,0.28,,Fog-Rain,202
2012-10-15,36,31,26,36,31,27,100,100,100,29.68,29.63,29.59,0,0,0,26,21,40,0.55,,Fog-Rain-Snow,182
2012-10-16,32,29,26,32,28,25,100,92,71,30.01,29.80,29.68,6,2,0,22,14,,0.00,5,Fog,32
2012-10-17,37,33,29,37,33,26,100,93,80,30.21,30.14,30.01,12,2,0,21,13,28,0.00,3,Fog,206
2012-10-18,43,40,36,39,34,9,100,82,25,30.30,30.25,30.21,19,2,0,18,11,,0.00,,Fog,212
2012-10-19,52,46,39,25,6,-8,46,18,4,30.33,30.30,30.30,,,,12,9,,0.00,,,179
2012-10-20,54,48,43,12,1,-7,27,13,4,30.30,30.27,30.24,,,,8,5,,0.00,,,351
2012-10-21,57,52,47,27,17,5,33,22,8,30.27,30.23,30.21,,,,12,5,,0.00,,,358
2012-10-22,59,55,51,36,29,25,47,34,22,30.27,30.26,30.24,,,,10,5,,0.00,,,24
2012-10-23,55,48,42,43,37,28,71,57,42,30.27,30.26,30.24,,,,9,5,,0.00,,,26
2012-10-24,50,46,42,41,33,23,81,59,35,30.21,30.14,30.09,,,,58,7,,0.00,,,232
2012-10-25,50,46,42,41,35,25,87,64,43,30.09,30.01,29.95,,,,7,5,,0.00,,,262
2012-10-26,44,40,37,41,38,37,100,99,81,29.95,29.76,29.53,6,1,0,22,7,29,0.04,,Fog-Rain,201
2012-10-27,37,30,24,38,35,23,100,99,93,29.50,29.24,29.15,0,0,0,29,16,43,0.20,,Fog-Rain-Snow,195
2012-10-28,21,20,18,21,18,14,100,90,80,29.47,29.34,29.24,19,4,0,30,21,41,0.20,5,Fog-Snow,353
2012-10-29,19,17,15,18,13,5,93,82,51,29.71,29.60,29.53,16,5,0,32,20,48,0.00,4,Fog-Snow,355
2012-10-30,28,22,15,23,14,1,93,71,46,29.71,29.69,29.68,12,7,6,17,9,,0.00,1,,216
2012-10-31,30,26,21,30,26,21,100,97,78,29.74,29.63,29.36,19,2,0,23,13,38,0.28,4,Fog-Rain-Snow,149